Time;durP1;ratioP1;P1;durP2;ratioP2;P2;SDS_P1;SDS_P2;PMS_P1;PMS_P2;Temp;Humidity;BMP_temperature;BMP_pressure;BME280_temperature;BME280_humidity;BME280_pressure;Samples;Min_cycle;Max_cycle;Signal;HPM_P1;HPM_P2
2022/09/04 00:02:42;;;;;;;5.10;4.40;;;;;;;22.19;61.00;99927.69;5050824;28;20067;-44
2022/09/04 00:05:22;;;;;;;6.45;4.72;;;;;;;21.98;61.80;99945.09;5050831;28;20035;-43
2022/09/04 00:07:48;;;;;;;;;;;;;;;21.81;62.83;99940.78;5051505;28;20052;-44
2022/09/04 00:10:33;;;;;;;5.07;4.07;;;;;;;21.88;62.77;99945.13;5050781;28;19944;-44
2022/09/04 00:13:40;;;;;;;6.25;4.32;;;;;;;22.41;60.68;99943.66;5042724;28;20120;-45
2022/09/04 00:16:22;;;;;;;5.65;4.50;;;;;;;21.94;61.90;99952.97;5050590;28;20123;-45
2022/09/04 00:18:55;;;;;;;6.43;4.50;;;;;;;21.87;62.18;99952.44;5051452;28;20041;-44
2022/09/04 00:22:00;;;;;;;6.28;4.32;;;;;;;21.91;62.33;99955.41;5050724;28;20029;-47
2022/09/04 00:24:42;;;;;;;7.25;4.25;;;;;;;21.90;62.45;99959.22;5048888;28;20106;-44
2022/09/04 00:27:22;;;;;;;6.03;4.47;;;;;;;22.61;60.24;99959.00;5050877;28;20040;-44
2022/09/04 00:30:01;;;;;;;4.88;4.13;;;;;;;22.09;61.40;99973.00;5050886;28;20070;-44
2022/09/04 00:32:45;;;;;;;5.60;4.60;;;;;;;22.12;61.57;99967.00;5050728;28;20449;-44
2022/09/04 00:35:17;;;;;;;5.13;4.63;;;;;;;22.02;61.56;99968.66;5050669;28;20024;-48
2022/09/04 00:37:50;;;;;;;6.30;4.53;;;;;;;22.68;59.87;99976.91;5050826;28;20033;-45
2022/09/04 00:40:20;;;;;;;5.90;4.55;;;;;;;22.34;60.63;99981.06;5050456;28;20521;-44
2022/09/04 00:43:09;;;;;;;7.63;4.88;;;;;;;22.44;60.25;99983.75;5050356;28;20029;-46
2022/09/04 00:46:12;;;;;;;5.45;4.45;;;;;;;22.38;60.45;99981.34;5050468;28;20029;-44
2022/09/04 00:49:12;;;;;;;5.68;4.72;;;;;;;22.94;58.46;99991.13;5053433;28;20028;-44
2022/09/04 00:52:06;;;;;;;5.32;4.47;;;;;;;22.30;60.79;99995.47;5047815;28;20059;-44
2022/09/04 00:55:02;;;;;;;4.97;4.47;;;;;;;22.18;61.74;99993.84;5070799;28;20107;-44
2022/09/04 00:58:01;;;;;;;6.68;4.65;;;;;;;22.08;62.32;99991.13;5069891;28;20043;-45
2022/09/04 01:00:27;;;;;;;8.30;4.78;;;;;;;21.77;63.61;99987.66;5058441;28;20052;-46
2022/09/04 01:03:17;;;;;;;5.90;4.63;;;;;;;21.93;63.53;99994.66;5050403;28;20125;-44
2022/09/04 01:05:55;;;;;;;5.38;4.35;;;;;;;21.97;63.89;99995.78;5050387;28;20025;-45
2022/09/04 01:08:45;;;;;;;5.40;4.68;;;;;;;22.19;63.07;100005.50;5050154;28;20041;-43
2022/09/04 01:11:28;;;;;;;5.57;4.90;;;;;;;22.35;62.71;100006.28;5049749;28;20126;-45
2022/09/04 01:14:21;;;;;;;5.80;4.78;;;;;;;21.83;64.48;100000.91;5048197;28;20278;-46
2022/09/04 01:17:26;;;;;;;5.30;4.80;;;;;;;21.96;64.31;100007.69;5049826;28;20064;-42
2022/09/04 01:20:18;;;;;;;6.55;4.80;;;;;;;22.38;62.87;100011.16;5049905;28;20424;-42
2022/09/04 01:23:21;;;;;;;6.53;5.10;;;;;;;21.84;64.94;100010.69;5051056;28;20036;-43
2022/09/04 01:25:56;;;;;;;6.28;4.63;;;;;;;21.76;65.44;100007.69;5049702;28;20071;-44
2022/09/04 01:28:33;;;;;;;7.38;5.18;;;;;;;21.70;65.56;100012.28;5050456;28;20032;-44
2022/09/04 01:31:15;;;;;;;6.18;5.00;;;;;;;22.58;62.44;100004.84;5050194;28;20024;-43
2022/09/04 01:34:07;;;;;;;7.57;5.18;;;;;;;21.90;64.80;100007.97;5050532;28;20052;-43
2022/09/04 01:36:54;;;;;;;5.88;5.00;;;;;;;21.45;66.47;100000.38;5050494;28;20071;-43
2022/09/04 01:39:23;;;;;;;11.38;5.50;;;;;;;21.15;67.39;99995.72;5050377;28;20029;-44
2022/09/04 01:41:58;;;;;;;8.02;5.13;;;;;;;21.63;65.64;99998.22;5050317;28;20319;-43
2022/09/04 01:44:25;;;;;;;5.90;5.30;;;;;;;21.23;67.22;100000.59;5050634;28;20052;-43
2022/09/04 01:46:57;;;;;;;6.95;5.50;;;;;;;21.00;67.91;100001.91;5049913;28;20105;-44
2022/09/04 01:49:25;;;;;;;6.57;5.50;;;;;;;21.07;67.65;99997.03;5059578;28;20035;-43
2022/09/04 01:52:35;;;;;;;7.93;5.70;;;;;;;21.35;66.57;100005.75;5069928;28;20036;-45
2022/09/04 01:55:40;;;;;;;9.02;6.18;;;;;;;20.75;68.82;99999.09;5070153;28;20496;-46
2022/09/04 01:58:44;;;;;;;6.15;5.45;;;;;;;20.75;69.12;99994.47;5066349;28;20388;-45
2022/09/04 02:01:38;;;;;;;8.57;6.10;;;;;;;21.11;68.04;100001.91;5052639;28;20033;-45
2022/09/04 02:04:29;;;;;;;6.28;5.53;;;;;;;21.01;68.04;100008.91;5049874;28;20103;-44
2022/09/04 02:07:04;;;;;;;6.18;5.38;;;;;;;21.08;68.56;100022.22;5050656;28;20024;-44
2022/09/04 02:09:48;;;;;;;6.28;5.35;;;;;;;21.21;68.27;100021.69;5050271;28;20350;-45
2022/09/04 02:12:24;;;;;;;5.97;5.38;;;;;;;21.72;66.11;100023.66;5049540;28;20071;-45
2022/09/04 02:15:25;;;;;;;5.97;5.20;;;;;;;21.45;66.66;100023.91;5050155;28;20039;-44
2022/09/04 02:18:11;;;;;;;6.90;5.50;;;;;;;21.25;66.85;100017.38;5045767;28;20122;-43
2022/09/04 02:20:43;;;;;;;7.40;5.57;;;;;;;21.42;67.13;100017.13;5049669;28;20037;-45
2022/09/04 02:23:17;;;;;;;6.78;5.20;;;;;;;22.00;64.53;100021.50;5049672;28;20032;-44
2022/09/04 02:25:54;;;;;;;8.55;5.53;;;;;;;21.47;66.62;100017.16;5050156;28;20025;-44
2022/09/04 02:28:23;;;;;;;5.80;5.18;;;;;;;21.46;66.66;100012.84;5049801;28;20024;-45
2022/09/04 02:31:08;;;;;;;7.88;5.75;;;;;;;21.46;66.58;100010.13;5049890;28;20361;-44
2022/09/04 02:33:39;;;;;;;6.05;5.45;;;;;;;22.07;64.16;100008.50;5049777;28;20025;-47
2022/09/04 02:36:08;;;;;;;6.05;5.00;;;;;;;21.36;66.75;100003.84;5050122;28;20020;-44
2022/09/04 02:38:40;;;;;;;7.53;5.30;;;;;;;21.18;67.29;100011.41;5053636;28;20044;-44
2022/09/04 02:41:27;;;;;;;6.28;5.05;;;;;;;20.80;69.05;100013.44;5053333;28;20140;-45
2022/09/04 02:44:17;;;;;;;8.00;5.55;;;;;;;21.23;67.10;100011.41;5053294;28;20032;-44
2022/09/04 02:46:56;;;;;;;8.02;5.50;;;;;;;20.72;68.92;100000.44;5053539;28;20077;-45
2022/09/04 02:49:47;;;;;;;6.80;5.30;;;;;;;20.45;70.44;100012.19;5062666;28;20019;-45
2022/09/04 02:52:37;;;;;;;6.78;5.45;;;;;;;21.03;68.76;100008.66;5073554;28;20036;-44
2022/09/04 02:55:38;;;;;;;7.85;5.50;;;;;;;20.67;69.47;100014.72;5073037;28;20043;-44
2022/09/04 02:58:27;;;;;;;;;;;;;;;20.44;70.58;100015.13;5073594;28;20066;-44
2022/09/04 03:01:11;;;;;;;5.97;5.10;;;;;;;20.51;70.41;100010.31;5058004;28;19955;-43
2022/09/04 03:03:56;;;;;;;6.22;5.28;;;;;;;20.91;68.41;100011.59;5052936;28;20098;-44
2022/09/04 03:06:49;;;;;;;6.63;5.40;;;;;;;20.53;69.59;100018.97;5052640;28;20450;-46
2022/09/04 03:09:29;;;;;;;8.23;5.13;;;;;;;20.36;70.45;100018.34;5053336;28;20105;-45
2022/09/04 03:12:02;;;;;;;7.47;4.97;;;;;;;20.90;68.60;100018.06;5052657;28;20056;-42
2022/09/04 03:14:47;;;;;;;7.07;5.38;;;;;;;20.48;69.45;100008.13;5052558;28;20029;-43
2022/09/04 03:17:22;;;;;;;6.18;5.57;;;;;;;20.29;70.69;100008.56;5051473;28;20124;-44
2022/09/04 03:19:53;;;;;;;7.80;5.03;;;;;;;20.11;71.58;100023.31;5052420;28;20100;-43
2022/09/04 03:22:31;;;;;;;6.57;5.50;;;;;;;20.72;69.35;100021.28;5053028;28;20086;-45
2022/09/04 03:25:00;;;;;;;6.13;5.50;;;;;;;20.50;69.37;100020.31;5053076;28;20431;-41
2022/09/04 03:27:29;;;;;;;8.68;5.45;;;;;;;20.15;71.02;100018.22;5052262;28;20029;-44
2022/09/04 03:30:07;;;;;;;7.80;5.43;;;;;;;19.97;71.55;100024.03;5052529;28;20134;-44
2022/09/04 03:32:36;;;;;;;6.97;5.70;;;;;;;20.48;69.96;100017.03;5052380;28;20366;-44
2022/09/04 03:35:14;;;;;;;;;;;;;;;20.04;71.75;100028.13;5052718;28;20043;-45
2022/09/04 03:37:45;;;;;;;7.72;5.57;;;;;;;20.07;71.31;100032.22;5052480;28;19909;-45
2022/09/04 03:40:11;;;;;;;5.90;5.07;;;;;;;20.21;71.31;100041.47;5052375;28;20061;-45
2022/09/04 03:43:00;;;;;;;7.72;5.47;;;;;;;20.16;71.44;100040.63;5052298;28;20055;-46
2022/09/04 03:45:34;;;;;;;6.25;5.38;;;;;;;20.20;71.46;100041.75;5052393;28;20091;-43
2022/09/04 03:48:16;;;;;;;6.10;5.50;;;;;;;20.17;71.13;100047.69;5050728;28;20068;-43
2022/09/04 03:51:09;;;;;;;8.00;5.70;;;;;;;20.23;70.92;100033.13;5072354;28;20017;-44
2022/09/04 03:53:40;;;;;;;6.28;5.68;;;;;;;20.28;70.69;100039.38;5072200;28;20025;-43
2022/09/04 03:56:55;;;;;;;6.68;5.40;;;;;;;20.24;70.92;100040.16;5072188;28;20158;-45
2022/09/04 03:59:57;;;;;;;6.63;5.57;;;;;;;20.43;70.96;100043.25;5064771;28;20820;-46
2022/09/04 04:02:46;;;;;;;7.43;5.38;;;;;;;20.33;71.40;100048.59;5052573;28;20067;-43
2022/09/04 04:05:24;;;;;;;5.70;5.07;;;;;;;20.45;70.17;100051.91;5051985;28;20036;-47
2022/09/04 04:07:55;;;;;;;7.50;5.22;;;;;;;20.62;69.53;100060.69;5051494;28;20021;-44
2022/09/04 04:10:32;;;;;;;8.57;5.78;;;;;;;20.54;69.74;100071.16;5051481;28;20461;-44
2022/09/04 04:13:25;;;;;;;6.10;5.50;;;;;;;20.78;69.35;100077.81;5051891;28;20021;-44
2022/09/04 04:16:09;;;;;;;6.95;5.22;;;;;;;20.71;68.80;100074.50;5052147;28;20033;-47
2022/09/04 04:19:00;;;;;;;6.68;4.85;;;;;;;20.56;69.07;100085.22;5051431;28;20128;-44
2022/09/04 04:22:02;;;;;;;8.55;5.13;;;;;;;20.48;69.30;100092.72;5049877;28;20024;-44
2022/09/04 04:25:01;;;;;;;7.80;4.68;;;;;;;20.40;70.10;100090.53;5051535;28;20083;-45
2022/09/04 04:27:56;;;;;;;5.57;4.55;;;;;;;20.45;69.49;100098.69;5051698;28;20029;-43
2022/09/04 04:30:22;;;;;;;5.68;4.55;;;;;;;20.52;68.44;100103.84;5051303;28;20139;-44
2022/09/04 04:32:59;;;;;;;6.55;4.63;;;;;;;20.85;67.88;100107.31;5051553;28;20028;-43
2022/09/04 04:35:42;;;;;;;7.05;4.95;;;;;;;20.87;67.21;100113.28;5051479;28;20025;-46
2022/09/04 04:38:30;;;;;;;6.40;4.60;;;;;;;20.59;68.44;100107.13;5051189;28;20052;-45
2022/09/04 04:40:58;;;;;;;5.60;5.00;;;;;;;21.07;66.97;100102.53;5050975;28;20083;-46
2022/09/04 04:43:46;;;;;;;6.30;4.45;;;;;;;21.42;65.44;100117.28;5051183;28;20036;-43
2022/09/04 04:46:37;;;;;;;7.30;4.82;;;;;;;21.78;63.85;100119.28;5051102;28;20512;-44
2022/09/04 04:49:38;;;;;;;6.45;4.70;;;;;;;22.01;63.57;100131.50;5051193;28;20025;-46
2022/09/04 04:52:18;;;;;;;5.85;4.88;;;;;;;22.13;63.01;100132.06;5015432;28;20124;-43
2022/09/04 04:55:21;;;;;;;5.78;5.05;;;;;;;21.99;63.22;100130.94;5051437;28;20040;-47
2022/09/04 04:57:59;;;;;;;6.25;5.22;;;;;;;21.78;64.20;100133.66;5051180;28;20037;-44
2022/09/04 05:00:38;;;;;;;7.38;5.40;;;;;;;21.71;64.03;100141.22;5050618;28;20021;-45
2022/09/04 05:03:21;;;;;;;6.50;5.28;;;;;;;21.67;64.24;100142.84;5050505;28;20071;-45
2022/09/04 05:06:00;;;;;;;5.80;5.20;;;;;;;21.58;64.38;100147.16;5050725;28;20554;-44
2022/09/04 05:08:37;;;;;;;9.32;6.50;;;;;;;21.89;63.83;100142.59;5050401;28;20021;-46
2022/09/04 05:11:22;;;;;;;12.02;8.23;;;;;;;21.90;63.52;100146.13;5050582;28;20037;-43
2022/09/04 05:14:15;;;;;;;6.90;5.65;;;;;;;21.99;63.41;100148.03;5050338;28;20137;-42
2022/09/04 05:17:13;;;;;;;10.05;5.78;;;;;;;21.41;65.39;100163.56;5050454;28;20077;-42
2022/09/04 05:20:17;;;;;;;8.32;6.32;;;;;;;21.82;64.05;100172.66;5050558;28;20449;-43
2022/09/04 05:23:00;;;;;;;7.53;6.10;;;;;;;22.01;63.08;100161.31;5050764;28;20032;-43
2022/09/04 05:25:41;;;;;;;8.40;5.22;;;;;;;22.22;62.43;100168.38;5050466;28;20025;-46
2022/09/04 05:28:09;;;;;;;9.65;5.40;;;;;;;22.23;61.81;100171.91;5050649;28;20120;-47
2022/09/04 05:30:59;;;;;;;6.65;5.10;;;;;;;22.06;61.71;100169.44;5050657;28;20052;-44
2022/09/04 05:33:43;;;;;;;6.00;5.10;;;;;;;21.99;61.95;100179.72;5050387;28;20032;-43
2022/09/04 05:36:14;;;;;;;8.15;5.22;;;;;;;21.80;62.85;100187.53;5050498;28;20029;-43
2022/09/04 05:39:01;;;;;;;6.32;5.25;;;;;;;21.85;62.75;100193.78;5050718;28;20028;-45
2022/09/04 05:41:35;;;;;;;7.70;4.97;;;;;;;21.91;62.62;100193.81;5050541;28;20091;-46
2022/09/04 05:44:25;;;;;;;5.93;4.93;;;;;;;22.10;62.20;100194.09;5050836;28;20033;-44
2022/09/04 05:47:08;;;;;;;5.45;4.88;;;;;;;22.08;62.17;100182.72;5050400;28;20021;-45
2022/09/04 05:49:45;;;;;;;6.10;5.13;;;;;;;22.08;61.96;100194.38;5050136;28;20033;-43
2022/09/04 05:52:32;;;;;;;9.48;4.90;;;;;;;21.44;63.99;100195.56;5050798;28;20029;-43
2022/09/04 05:55:30;;;;;;;6.78;5.13;;;;;;;21.50;64.24;100199.09;5050298;28;20489;-45
2022/09/04 05:58:04;;;;;;;11.77;5.30;;;;;;;21.98;62.68;100194.34;5050452;28;20057;-44
2022/09/04 06:00:51;;;;;;;7.78;5.72;;;;;;;22.15;62.31;100197.63;5050230;28;20033;-45
2022/09/04 06:03:28;;;;;;;9.35;5.22;;;;;;;22.26;61.68;100198.50;5050724;28;20064;-47
2022/09/04 06:06:10;;;;;;;6.63;5.10;;;;;;;22.30;61.72;100198.78;5050293;28;20464;-45
2022/09/04 06:08:47;;;;;;;7.18;5.32;;;;;;;22.09;62.48;100196.00;5050835;28;20029;-44
2022/09/04 06:11:27;;;;;;;7.45;5.18;;;;;;;22.10;62.80;100186.78;5050660;28;20059;-43
2022/09/04 06:14:01;;;;;;;;;;;;;;;22.38;61.37;100181.97;5053905;28;20086;-45
2022/09/04 06:16:47;;;;;;;6.07;5.03;;;;;;;22.61;60.72;100181.41;5053798;28;19920;-47
2022/09/04 06:19:49;;;;;;;8.00;5.57;;;;;;;22.55;61.05;100185.19;5031865;28;20124;-44
2022/09/04 06:22:23;;;;;;;10.38;6.00;;;;;;;22.83;60.92;100188.44;5053745;28;20218;-45
2022/09/04 06:25:01;;;;;;;6.90;5.07;;;;;;;23.13;59.02;100181.31;5053397;28;20123;-43
2022/09/04 06:27:50;;;;;;;6.85;5.45;;;;;;;23.28;58.64;100185.88;5053209;28;20021;-45
2022/09/04 06:30:16;;;;;;;7.50;5.05;;;;;;;23.28;58.25;100178.53;5053385;28;20104;-43
2022/09/04 06:33:00;;;;;;;6.32;4.90;;;;;;;23.02;59.59;100181.34;5053438;28;20045;-44
2022/09/04 06:35:45;;;;;;;8.15;4.90;;;;;;;22.78;59.83;100181.09;5053524;28;20059;-45
2022/09/04 06:38:34;;;;;;;8.23;5.00;;;;;;;23.33;59.15;100191.31;5053001;28;20102;-45
2022/09/04 06:41:09;;;;;;;7.22;5.10;;;;;;;23.48;57.98;100187.72;5053107;28;20029;-46
2022/09/04 06:43:52;;;;;;;7.75;5.30;;;;;;;23.52;57.81;100191.50;5051531;28;20047;-45
2022/09/04 06:46:28;;;;;;;6.60;4.97;;;;;;;23.39;57.83;100196.44;5043629;28;20460;-44
2022/09/04 06:49:36;;;;;;;10.68;4.70;;;;;;;23.81;57.22;100194.34;5038188;28;20473;-37
2022/09/04 06:52:11;;;;;;;8.40;5.05;;;;;;;23.18;58.82;100186.75;5047637;28;20345;-37
2022/09/04 06:54:58;;;;;;;9.85;5.03;;;;;;;23.37;57.96;100186.94;5044632;28;20037;-37
2022/09/04 06:57:50;;;;;;;6.75;4.70;;;;;;;23.78;57.17;100184.03;5033135;28;20552;-37
2022/09/04 07:00:17;;;;;;;6.93;4.68;;;;;;;23.68;57.15;100179.44;5037813;28;20036;-37
2022/09/04 07:03:20;;;;;;;5.68;4.38;;;;;;;24.00;56.92;100175.50;5051980;28;20162;-36
2022/09/04 07:06:10;;;;;;;6.00;4.70;;;;;;;24.29;56.08;100174.72;5033265;28;20037;-37
2022/09/04 07:08:47;;;;;;;9.30;5.10;;;;;;;23.79;57.17;100163.94;5052756;28;20021;-38
2022/09/04 07:11:16;;;;;;;5.93;4.90;;;;;;;24.34;54.89;100158.38;5051410;28;20029;-35
2022/09/04 07:13:50;;;;;;;8.10;5.07;;;;;;;24.20;55.43;100167.19;5052180;28;20029;-37
2022/09/04 07:16:35;;;;;;;6.45;5.03;;;;;;;24.56;54.17;100164.19;5051427;28;20033;-37
2022/09/04 07:19:11;;;;;;;5.10;4.50;;;;;;;24.73;54.22;100161.03;5049668;28;20036;-37
2022/09/04 07:21:38;;;;;;;5.00;4.50;;;;;;;25.13;52.89;100166.31;5045792;28;20021;-37
2022/09/04 07:24:25;;;;;;;6.35;4.43;;;;;;;25.75;51.77;100167.16;5050619;28;20375;-37
2022/09/04 07:27:10;;;;;;;4.97;4.47;;;;;;;26.28;49.59;100171.56;5052281;28;20035;-38
2022/09/04 07:29:40;;;;;;;6.18;4.60;;;;;;;26.25;49.05;100165.91;5052224;28;20354;-38
2022/09/04 07:32:29;;;;;;;5.30;4.80;;;;;;;26.22;49.04;100163.78;5051746;28;20021;-37
2022/09/04 07:35:02;;;;;;;6.05;4.65;;;;;;;26.85;47.32;100157.75;5051807;28;20017;-37
2022/09/04 07:37:57;;;;;;;5.80;4.50;;;;;;;27.33;46.55;100158.50;5051824;28;20036;-37
2022/09/04 07:40:29;;;;;;;8.35;4.70;;;;;;;27.64;45.20;100155.88;5049880;28;20059;-37
2022/09/04 07:43:04;;;;;;;6.13;4.50;;;;;;;27.62;45.49;100156.19;5051225;28;20025;-38
2022/09/04 07:45:37;;;;;;;5.40;4.85;;;;;;;27.81;45.29;100161.50;5050834;28;20201;-37
2022/09/04 07:48:40;;;;;;;5.20;4.50;;;;;;;27.91;44.33;100144.06;5050766;28;20051;-37
2022/09/04 07:51:12;;;;;;;4.95;4.47;;;;;;;27.93;44.88;100161.00;5020606;28;20029;-37
2022/09/04 07:54:16;;;;;;;5.75;4.50;;;;;;;28.13;44.66;100169.84;5038455;28;20554;-37
2022/09/04 07:57:06;;;;;;;5.07;4.60;;;;;;;28.96;42.89;100161.94;5052456;28;20198;-37
2022/09/04 08:00:05;;;;;;;5.30;4.80;;;;;;;29.55;40.30;100169.03;5052209;28;20027;-37
2022/09/04 08:03:12;;;;;;;5.60;4.53;;;;;;;29.57;41.71;100169.53;5039818;28;20490;-37
2022/09/04 08:05:50;;;;;;;5.40;4.90;;;;;;;30.42;39.63;100171.00;5029346;28;20116;-37
2022/09/04 08:08:41;;;;;;;6.22;4.93;;;;;;;30.10;40.07;100175.84;5029479;28;20029;-37
2022/09/04 08:11:25;;;;;;;5.65;4.97;;;;;;;29.92;40.44;100170.38;5045838;28;20033;-36
2022/09/04 08:14:00;;;;;;;6.22;5.40;;;;;;;30.17;39.61;100173.44;5051170;28;20059;-37
2022/09/04 08:16:38;;;;;;;6.90;5.35;;;;;;;30.01;39.99;100173.94;5050531;28;20037;-38
2022/09/04 08:19:18;;;;;;;6.78;5.80;;;;;;;30.05;39.75;100176.84;5050877;28;20135;-37
2022/09/04 08:21:47;;;;;;;7.00;5.80;;;;;;;30.44;39.33;100160.50;5051356;28;20025;-37
2022/09/04 08:24:48;;;;;;;6.47;5.00;;;;;;;29.52;41.29;100169.69;5051371;28;20040;-37
2022/09/04 08:27:26;;;;;;;5.95;5.35;;;;;;;29.12;42.43;100167.78;5051205;28;20064;-37
2022/09/04 08:30:07;;;;;;;5.75;5.15;;;;;;;29.42;41.33;100166.13;5051674;28;20021;-36
2022/09/04 08:32:41;;;;;;;5.78;4.93;;;;;;;29.57;41.30;100161.31;5051028;28;20098;-36
2022/09/04 08:35:33;;;;;;;5.80;5.18;;;;;;;29.35;41.58;100165.00;5050521;28;20040;-36
2022/09/04 08:38:20;;;;;;;6.43;5.45;;;;;;;29.13;41.84;100163.16;5051162;28;20135;-37
2022/09/04 08:41:05;;;;;;;5.82;5.22;;;;;;;28.99;41.87;100146.81;5050820;28;20028;-37
2022/09/04 08:44:05;;;;;;;5.82;5.32;;;;;;;29.12;42.24;100159.56;5045187;28;20550;-38
2022/09/04 08:47:09;;;;;;;7.00;5.10;;;;;;;29.09;41.71;100151.97;5043917;28;20036;-37
2022/09/04 08:49:56;;;;;;;6.10;5.40;;;;;;;29.22;41.25;100151.06;5037266;28;20095;-37
2022/09/04 08:53:06;;;;;;;6.60;5.80;;;;;;;29.31;40.35;100153.06;5031087;28;20037;-37
2022/09/04 08:55:59;;;;;;;6.07;5.47;;;;;;;29.19;41.27;100149.00;5024496;28;20037;-37
2022/09/04 08:58:25;;;;;;;7.65;5.85;;;;;;;29.27;40.94;100143.88;5031164;28;20409;-37
2022/09/04 09:01:05;;;;;;;6.55;5.70;;;;;;;29.63;41.35;100147.13;5044805;28;20473;-35
2022/09/04 09:03:52;;;;;;;6.63;5.55;;;;;;;30.41;39.86;100148.25;5050299;28;20162;-38
2022/09/04 09:06:48;;;;;;;7.55;6.00;;;;;;;30.17;40.11;100146.78;5050660;28;20035;-38
2022/09/04 09:09:44;;;;;;;7.97;5.30;;;;;;;29.61;40.75;100146.63;5049719;28;20481;-38
2022/09/04 09:12:27;;;;;;;7.68;6.10;;;;;;;29.57;41.19;100150.34;5043889;28;20024;-37
2022/09/04 09:15:12;;;;;;;7.10;6.40;;;;;;;29.35;40.38;100159.50;5037206;28;20065;-36
2022/09/04 09:17:46;;;;;;;6.90;6.20;;;;;;;28.88;41.75;100154.50;5029370;28;20402;-37
2022/09/04 09:20:12;;;;;;;6.88;6.00;;;;;;;29.24;41.91;100150.75;5030149;28;20045;-37
2022/09/04 09:23:02;;;;;;;6.57;5.95;;;;;;;29.57;40.88;100153.09;5030676;28;20167;-37
2022/09/04 09:25:45;;;;;;;6.35;5.75;;;;;;;30.14;39.80;100147.47;5030680;28;20033;-37
2022/09/04 09:28:38;;;;;;;6.20;5.60;;;;;;;30.54;39.00;100151.91;5030602;28;20091;-37
2022/09/04 09:31:20;;;;;;;6.90;6.20;;;;;;;31.46;37.11;100147.75;5030043;28;20104;-37
2022/09/04 09:34:04;;;;;;;7.88;5.82;;;;;;;30.82;38.51;100156.97;5030007;28;20341;-37
2022/09/04 09:37:01;;;;;;;6.43;5.82;;;;;;;29.52;39.42;100165.00;5030427;28;20339;-37
2022/09/04 09:40:16;;;;;;;6.85;6.15;;;;;;;28.71;42.51;100168.09;5022097;28;20080;-36
2022/09/04 09:43:19;;;;;;;6.45;5.85;;;;;;;29.12;41.36;100167.78;5030162;28;20033;-45
2022/09/04 09:46:10;;;;;;;8.27;6.60;;;;;;;29.22;40.56;100167.53;5029970;28;20083;-44
2022/09/04 09:49:10;;;;;;;6.97;6.28;;;;;;;29.33;40.12;100156.28;5032172;28;20158;-45
2022/09/04 09:52:12;;;;;;;7.63;6.80;;;;;;;29.39;39.87;100144.03;5049917;28;20094;-37
2022/09/04 09:54:50;;;;;;;7.00;6.20;;;;;;;29.36;40.23;100155.63;5050258;28;20025;-37
2022/09/04 09:57:43;;;;;;;7.30;6.60;;;;;;;29.72;40.74;100157.28;5050145;28;20032;-36
2022/09/04 10:00:24;;;;;;;28.08;24.50;;;;;;;29.42;40.17;100151.63;5049871;28;20060;-36
2022/09/04 10:03:28;;;;;;;9.10;7.38;;;;;;;28.80;41.21;100149.78;5050336;28;20039;-37
2022/09/04 10:06:14;;;;;;;7.88;7.18;;;;;;;29.00;41.92;100143.75;5029950;28;20098;-37
2022/09/04 10:09:14;;;;;;;9.18;7.00;;;;;;;29.19;40.62;100138.03;5050150;28;20404;-37
2022/09/04 10:12:24;;;;;;;9.07;6.80;;;;;;;29.68;40.29;100143.41;5049892;28;20200;-37
2022/09/04 10:15:19;;;;;;;7.43;6.72;;;;;;;29.93;39.81;100139.09;5050017;28;20464;-36
2022/09/04 10:18:10;;;;;;;8.77;7.10;;;;;;;30.04;39.28;100125.81;5050018;28;20056;-37
2022/09/04 10:20:45;;;;;;;8.18;7.38;;;;;;;29.47;40.83;100124.03;5050117;28;20411;-38
2022/09/04 10:23:26;;;;;;;10.20;6.97;;;;;;;29.72;41.26;100132.59;5050356;28;20033;-38
2022/09/04 10:26:15;;;;;;;7.85;7.05;;;;;;;29.66;39.74;100134.69;5050258;28;20052;-36
2022/09/04 10:28:46;;;;;;;7.00;6.40;;;;;;;29.49;40.76;100126.47;5050463;28;20025;-37
2022/09/04 10:31:56;;;;;;;7.70;7.00;;;;;;;29.89;40.34;100123.59;5050125;28;20287;-37
2022/09/04 10:34:27;;;;;;;7.93;7.07;;;;;;;30.30;40.34;100114.81;5041256;28;20489;-37
2022/09/04 10:36:53;;;;;;;9.05;7.03;;;;;;;30.40;39.58;100128.19;5050672;28;20032;-37
2022/09/04 10:42:17;;;;;;;8.23;7.10;;;;;;;30.46;39.12;100114.31;5050844;28;20035;-37
2022/09/04 10:45:22;;;;;;;7.57;6.82;;;;;;;30.04;39.30;100114.84;5050005;28;20591;-37
2022/09/04 10:47:57;;;;;;;7.53;6.82;;;;;;;29.46;39.99;100108.72;5028941;28;20043;-37
2022/09/04 10:51:00;;;;;;;9.60;7.03;;;;;;;29.11;41.39;100107.84;5049665;28;20472;-36
2022/09/04 10:53:51;;;;;;;8.85;7.50;;;;;;;29.19;40.97;100105.16;5033791;28;20052;-35
2022/09/04 10:56:39;;;;;;;8.75;7.40;;;;;;;28.83;41.60;100097.16;5049750;28;20032;-37
2022/09/04 10:59:35;;;;;;;7.65;7.00;;;;;;;28.32;42.44;100093.03;5052814;28;20457;-36
2022/09/04 11:02:14;;;;;;;7.65;6.95;;;;;;;28.37;42.66;100082.75;5053080;28;20412;-36
2022/09/04 11:04:58;;;;;;;7.78;7.00;;;;;;;28.78;41.80;100081.66;5052641;28;20032;-37
2022/09/04 11:08:05;;;;;;;7.60;6.70;;;;;;;28.81;41.99;100081.03;5053387;28;20103;-37
2022/09/04 11:11:07;;;;;;;8.80;6.88;;;;;;;29.11;41.06;100067.56;5053230;28;20017;-37
2022/09/04 11:13:48;;;;;;;7.95;7.03;;;;;;;28.86;41.79;100058.16;5053358;28;20037;-45
2022/09/04 11:16:28;;;;;;;8.32;7.10;;;;;;;29.21;41.15;100055.53;5052743;28;20532;-37
2022/09/04 11:19:02;;;;;;;7.95;7.15;;;;;;;29.42;40.78;100051.00;5052611;28;20060;-37
2022/09/04 11:21:52;;;;;;;7.85;7.07;;;;;;;29.71;40.61;100054.22;5053191;28;20025;-38
2022/09/04 11:24:34;;;;;;;;;;;;;;;30.10;39.11;100038.66;5053089;28;20051;-44
2022/09/04 11:27:28;;;;;;;9.57;8.68;;;;;;;30.12;39.02;100039.97;5052639;28;20016;-43
2022/09/04 11:30:12;;;;;;;7.63;6.90;;;;;;;30.23;39.25;100040.41;5048353;28;20078;-38
2022/09/04 11:32:51;;;;;;;7.20;6.50;;;;;;;30.17;38.93;100036.22;5052501;28;20044;-44
2022/09/04 11:35:18;;;;;;;7.80;7.10;;;;;;;30.53;38.51;100035.78;5048351;28;20025;-37
2022/09/04 11:38:16;;;;;;;7.13;6.43;;;;;;;30.05;39.00;100045.16;5052278;28;20111;-44
2022/09/04 11:40:41;;;;;;;7.72;6.97;;;;;;;30.33;38.65;100033.78;5056984;28;20025;-37
2022/09/04 11:43:19;;;;;;;6.93;6.20;;;;;;;30.69;38.27;100032.47;5053290;28;20131;-37
2022/09/04 11:46:05;;;;;;;7.25;6.00;;;;;;;29.78;38.77;100029.91;5053161;28;20456;-44
2022/09/04 11:48:30;;;;;;;7.57;6.75;;;;;;;29.45;39.31;100024.88;5054713;28;20469;-36
2022/09/04 11:51:39;;;;;;;7.65;6.57;;;;;;;29.07;39.97;100020.00;5072450;28;20020;-37
2022/09/04 11:54:29;;;;;;;6.72;6.13;;;;;;;29.59;39.15;100016.50;5072849;28;20067;-37
2022/09/04 11:56:54;;;;;;;7.00;6.30;;;;;;;29.28;40.69;100020.22;5072384;28;20437;-37
2022/09/04 11:59:34;;;;;;;8.10;6.68;;;;;;;29.77;39.23;100012.59;5072229;28;20029;-37
2022/09/04 12:02:18;;;;;;;6.60;6.00;;;;;;;29.80;38.64;100000.22;5072732;28;20032;-37
2022/09/04 12:05:04;;;;;;;6.55;5.95;;;;;;;30.19;38.86;99995.53;5072239;28;20540;-37
2022/09/04 12:07:45;;;;;;;7.15;6.07;;;;;;;30.45;38.27;99991.91;5065709;28;20108;-37
2022/09/04 12:10:29;;;;;;;7.88;5.85;;;;;;;29.96;39.18;99987.56;5050354;28;20056;-38
2022/09/04 12:13:39;;;;;;;6.32;5.72;;;;;;;30.02;38.35;99997.25;5050139;28;20453;-38
2022/09/04 12:16:17;;;;;;;7.07;6.38;;;;;;;29.76;38.40;99991.03;5051498;28;20378;-37
2022/09/04 12:19:25;;;;;;;6.22;5.72;;;;;;;29.28;40.36;99997.50;5051554;28;20079;-37
2022/09/04 12:22:03;;;;;;;6.57;5.97;;;;;;;28.98;41.01;99992.63;5034524;28;20151;-37
2022/09/04 12:24:40;;;;;;;6.40;5.80;;;;;;;28.77;41.30;99997.09;5032464;28;20033;-38
2022/09/04 12:27:48;;;;;;;6.68;5.90;;;;;;;28.61;41.34;100000.28;5032340;28;20135;-37
2022/09/04 12:30:24;;;;;;;6.50;5.90;;;;;;;29.11;40.83;100003.75;5047609;28;20125;-36
2022/09/04 12:32:52;;;;;;;6.63;6.03;;;;;;;29.43;40.02;99997.00;5051976;28;20029;-37
2022/09/04 12:35:35;;;;;;;6.80;5.63;;;;;;;29.88;39.73;99988.41;5051563;28;20025;-36
2022/09/04 12:38:28;;;;;;;12.95;11.77;;;;;;;29.92;39.21;99981.13;5051703;28;20447;-37
2022/09/04 12:41:24;;;;;;;11.35;8.43;;;;;;;29.84;39.39;99990.19;5051146;28;20021;-37
2022/09/04 12:44:12;;;;;;;6.20;5.60;;;;;;;29.31;40.01;99985.88;5051964;28;20028;-36
2022/09/04 12:46:59;;;;;;;6.93;6.22;;;;;;;29.26;40.00;99973.13;5051934;28;20021;-37
2022/09/04 12:49:34;;;;;;;6.93;5.75;;;;;;;28.83;40.51;99980.19;5061495;28;20142;-36
2022/09/04 12:52:09;;;;;;;7.18;5.50;;;;;;;28.92;40.25;99974.75;5071009;28;20484;-38